Time;durP1;ratioP1;P1;durP2;ratioP2;P2;SDS_P1;SDS_P2;PMS_P1;PMS_P2;Temp;Humidity;BMP_temperature;BMP_pressure;BME280_temperature;BME280_humidity;BME280_pressure;Samples;Min_cycle;Max_cycle;Signal;HPM_P1;HPM_P2
2022/01/15 00:01:30;;;;;;;;;132.67;121.67;;;;;;;;5074972;27;45277;-65
2022/01/15 00:03:56;;;;;;;;;139.67;126.33;;;;;;;;5078721;27;45475;-65
2022/01/15 00:06:21;;;;;;;;;130.00;125.00;;;;;;;;5083313;27;45646;-64
2022/01/15 00:08:46;;;;;;;;;131.00;117.67;;;;;;;;5084593;27;45696;-65
2022/01/15 00:11:11;;;;;;;;;130.00;122.67;;;;;;;;5076936;27;45522;-65
2022/01/15 00:13:39;;;;;;;;;127.67;118.67;;;;;;;;5088924;27;45491;-64
2022/01/15 00:16:09;;;;;;;;;143.33;134.67;;;;;;;;5078300;27;45746;-64
2022/01/15 00:18:47;;;;;;;;;155.33;144.00;;;;;;;;5081925;27;45478;-64
2022/01/15 00:21:12;;;;;;;;;136.67;126.00;;;;;;;;5060649;28;45604;-65
2022/01/15 00:23:38;;;;;;;;;159.67;140.67;;;;;;;;5078275;27;45502;-64
2022/01/15 00:26:03;;;;;;;;;168.33;149.00;;;;;;;;5088721;27;47583;-64
2022/01/15 00:28:28;;;;;;;;;153.67;144.00;;;;;;;;5081978;27;45458;-65
2022/01/15 00:30:53;;;;;;;;;142.67;125.67;;;;;;;;5082397;27;45375;-64
2022/01/15 00:33:19;;;;;;;;;170.00;144.33;;;;;;;;5075883;27;45452;-64
2022/01/15 00:35:44;;;;;;;;;165.00;139.33;;;;;;;;5075572;27;47300;-65
2022/01/15 00:38:09;;;;;;;;;146.00;138.33;;;;;;;;5077430;27;45387;-65
2022/01/15 00:40:34;;;;;;;;;146.33;134.67;;;;;;;;5074584;27;46451;-65
2022/01/15 00:43:00;;;;;;;;;147.67;138.33;;;;;;;;5081885;27;45518;-65
2022/01/15 00:45:29;;;;;;;;;108.33;96.33;;;;;;;;5074853;27;48618;-65
2022/01/15 00:47:54;;;;;;;;;147.67;136.00;;;;;;;;5070747;27;45508;-64
2022/01/15 00:50:20;;;;;;;;;158.67;136.00;;;;;;;;5065514;27;45408;-64
2022/01/15 00:52:45;;;;;;;;;160.00;140.67;;;;;;;;5080933;27;45450;-65
2022/01/15 00:55:11;;;;;;;;;138.00;121.00;;;;;;;;5084829;27;46602;-66
2022/01/15 00:57:36;;;;;;;;;136.33;127.00;;;;;;;;5074797;27;45435;-65
2022/01/15 01:00:03;;;;;;;;;145.00;131.00;;;;;;;;5081322;27;45393;-65
2022/01/15 01:02:28;;;;;;;;;139.67;130.00;;;;;;;;5075035;27;45498;-65
2022/01/15 01:04:54;;;;;;;;;141.00;129.33;;;;;;;;5078880;27;45523;-65
2022/01/15 01:07:19;;;;;;;;;132.33;119.00;;;;;;;;5085796;27;45839;-65
2022/01/15 01:10:06;;;;;;;;;133.67;116.00;;;;;;;;5075614;27;45930;-65
2022/01/15 01:23:06;;;;;;;;;134.67;122.33;;;;;;;;5077639;27;48009;-64
2022/01/15 01:25:38;;;;;;;;;118.33;107.67;;;;;;;;5081469;27;46559;-64
2022/01/15 01:28:11;;;;;;;;;113.33;109.67;;;;;;;;5077138;27;45426;-64
2022/01/15 01:30:45;;;;;;;;;111.67;105.00;;;;;;;;5076065;27;45402;-64
2022/01/15 01:36:02;;;;;;;;;123.33;112.67;;;;;;;;5078260;27;46555;-63
2022/01/15 01:38:32;;;;;;;;;114.00;105.33;;;;;;;;5076856;27;46095;-64
2022/01/15 01:41:00;;;;;;;;;123.33;106.33;;;;;;;;5068776;27;46446;-65
2022/01/15 01:48:43;;;;;;;;;115.67;106.67;;;;;;;;5081455;27;45366;-64
2022/01/15 01:51:08;;;;;;;;;116.67;104.00;;;;;;;;5080801;27;45375;-64
2022/01/15 01:53:37;;;;;;;;;116.00;102.33;;;;;;;;5078007;27;45467;-63
2022/01/15 01:56:03;;;;;;;;;109.00;100.33;;;;;;;;5105095;27;48620;-64
2022/01/15 01:58:28;;;;;;;;;126.33;116.67;;;;;;;;5080965;27;45397;-64
2022/01/15 02:00:54;;;;;;;;;103.33;100.33;;;;;;;;5080505;27;45856;-64
2022/01/15 02:03:19;;;;;;;;;118.00;104.67;;;;;;;;5078747;27;45390;-64
2022/01/15 02:05:44;;;;;;;;;114.67;106.00;;;;;;;;5078350;27;46277;-64
2022/01/15 02:08:10;;;;;;;;;118.33;108.67;;;;;;;;5087782;27;46615;-64
2022/01/15 02:10:36;;;;;;;;;111.33;101.00;;;;;;;;5080816;27;45452;-64
2022/01/15 02:13:01;;;;;;;;;104.67;93.33;;;;;;;;5081763;27;45810;-63
2022/01/15 02:15:27;;;;;;;;;111.67;98.67;;;;;;;;5077329;27;45622;-64
2022/01/15 02:17:53;;;;;;;;;106.00;97.67;;;;;;;;5079299;27;45497;-63
2022/01/15 02:25:42;;;;;;;;;104.67;99.00;;;;;;;;5085387;27;45367;-64
2022/01/15 02:28:08;;;;;;;;;117.00;106.33;;;;;;;;5077123;27;45490;-64
2022/01/15 02:30:33;;;;;;;;;115.33;108.67;;;;;;;;5081390;27;45368;-64
2022/01/15 02:32:58;;;;;;;;;111.33;99.33;;;;;;;;5071564;27;46802;-64
2022/01/15 02:35:23;;;;;;;;;104.33;95.33;;;;;;;;5077386;27;46512;-65
2022/01/15 02:37:49;;;;;;;;;101.00;92.33;;;;;;;;5088930;27;45502;-64
2022/01/15 02:40:14;;;;;;;;;112.00;104.33;;;;;;;;5078294;27;45292;-64
2022/01/15 02:42:40;;;;;;;;;111.67;96.33;;;;;;;;5079020;27;45437;-63
2022/01/15 02:45:08;;;;;;;;;103.33;96.67;;;;;;;;5078198;27;45765;-63
2022/01/15 02:50:16;;;;;;;;;111.33;95.00;;;;;;;;5057658;27;45345;-64
2022/01/15 02:52:42;;;;;;;;;100.67;96.00;;;;;;;;5078228;27;45476;-64
2022/01/15 02:55:07;;;;;;;;;100.33;88.00;;;;;;;;5081849;27;46431;-64
2022/01/15 02:57:32;;;;;;;;;109.67;93.33;;;;;;;;5074180;27;45535;-65
2022/01/15 02:59:57;;;;;;;;;115.67;99.33;;;;;;;;5077754;27;45595;-65
2022/01/15 03:02:23;;;;;;;;;104.33;97.33;;;;;;;;5085482;27;45485;-64
2022/01/15 03:04:48;;;;;;;;;108.67;99.33;;;;;;;;5077906;27;45636;-65
2022/01/15 03:07:13;;;;;;;;;101.67;89.00;;;;;;;;5080846;27;45596;-65
2022/01/15 03:09:40;;;;;;;;;110.33;101.00;;;;;;;;5072651;27;45459;-64
2022/01/15 03:12:06;;;;;;;;;106.00;94.33;;;;;;;;5075032;27;45485;-64
2022/01/15 03:14:31;;;;;;;;;109.33;103.67;;;;;;;;5087265;27;46655;-66
2022/01/15 03:16:57;;;;;;;;;115.00;107.67;;;;;;;;5070308;28;45373;-64
2022/01/15 03:19:22;;;;;;;;;118.33;104.67;;;;;;;;5067434;28;45424;-64
2022/01/15 03:21:47;;;;;;;;;108.33;94.67;;;;;;;;5074558;28;44817;-64
2022/01/15 03:24:12;;;;;;;;;108.00;96.67;;;;;;;;5073501;27;45838;-64
2022/01/15 03:26:38;;;;;;;;;107.00;99.33;;;;;;;;5069593;27;45346;-64
2022/01/15 03:29:03;;;;;;;;;114.67;105.67;;;;;;;;5071347;27;45242;-63
2022/01/15 03:31:28;;;;;;;;;121.67;105.33;;;;;;;;5072329;28;45464;-64
2022/01/15 03:33:53;;;;;;;;;91.33;73.33;;;;;;;;5073654;28;46152;-64
2022/01/15 03:36:19;;;;;;;;;106.00;98.33;;;;;;;;5072492;28;46138;-64
2022/01/15 03:38:44;;;;;;;;;120.33;106.00;;;;;;;;5073870;27;45487;-64
2022/01/15 03:41:09;;;;;;;;;96.00;85.67;;;;;;;;5071578;27;45472;-63
2022/01/15 03:43:34;;;;;;;;;107.67;100.33;;;;;;;;5075604;28;45379;-64
2022/01/15 03:45:59;;;;;;;;;106.00;97.00;;;;;;;;5074012;27;45408;-64
2022/01/15 03:48:25;;;;;;;;;117.00;103.00;;;;;;;;5071962;27;45508;-64
2022/01/15 03:50:51;;;;;;;;;98.33;80.00;;;;;;;;5072781;27;45365;-64
2022/01/15 03:53:16;;;;;;;;;99.33;88.33;;;;;;;;5071268;28;45863;-64
2022/01/15 03:55:41;;;;;;;;;110.33;98.33;;;;;;;;5073528;28;45440;-64
2022/01/15 03:58:06;;;;;;;;;114.00;106.67;;;;;;;;5073756;28;45413;-64
2022/01/15 04:00:32;;;;;;;;;110.33;99.33;;;;;;;;5071904;28;45421;-64
2022/01/15 04:02:57;;;;;;;;;102.67;88.00;;;;;;;;5072967;28;46458;-64
2022/01/15 04:05:23;;;;;;;;;109.00;98.67;;;;;;;;5072603;27;45799;-63
2022/01/15 04:07:48;;;;;;;;;107.33;96.33;;;;;;;;5072188;28;45408;-63
2022/01/15 04:10:14;;;;;;;;;105.33;93.00;;;;;;;;5076260;27;45474;-64
2022/01/15 04:12:39;;;;;;;;;107.00;99.00;;;;;;;;5067824;27;45716;-65
2022/01/15 04:15:06;;;;;;;;;104.00;98.00;;;;;;;;5063174;28;45461;-65
2022/01/15 04:17:31;;;;;;;;;101.00;91.00;;;;;;;;5064644;27;45559;-62
2022/01/15 04:19:57;;;;;;;;;100.00;87.33;;;;;;;;5072770;27;45336;-64
2022/01/15 04:22:22;;;;;;;;;105.33;93.00;;;;;;;;5071817;27;45617;-64
2022/01/15 04:24:47;;;;;;;;;104.00;97.33;;;;;;;;5071307;27;45486;-63
2022/01/15 04:27:13;;;;;;;;;103.00;95.00;;;;;;;;5071834;27;45360;-63
2022/01/15 04:29:38;;;;;;;;;104.67;94.67;;;;;;;;5072325;27;45401;-64
2022/01/15 04:32:03;;;;;;;;;106.33;94.67;;;;;;;;5064759;28;47624;-65
2022/01/15 04:34:30;;;;;;;;;101.67;90.67;;;;;;;;5062428;27;45394;-65
2022/01/15 04:37:00;;;;;;;;;104.33;93.00;;;;;;;;5071812;27;45414;-65
2022/01/15 04:39:26;;;;;;;;;104.00;93.00;;;;;;;;5071708;27;45629;-64
2022/01/15 04:41:51;;;;;;;;;108.67;102.00;;;;;;;;5070744;28;48576;-64
2022/01/15 04:44:16;;;;;;;;;108.33;99.67;;;;;;;;5072556;27;45475;-64
2022/01/15 04:46:43;;;;;;;;;108.67;100.67;;;;;;;;5073557;27;45409;-64
2022/01/15 04:49:08;;;;;;;;;107.67;96.67;;;;;;;;5074605;27;45346;-64
2022/01/15 04:51:34;;;;;;;;;107.00;99.33;;;;;;;;5071970;28;47768;-64
2022/01/15 04:54:00;;;;;;;;;100.00;89.33;;;;;;;;5073502;27;45438;-65
2022/01/15 04:56:25;;;;;;;;;100.33;84.67;;;;;;;;5072861;27;45931;-65
2022/01/15 04:58:50;;;;;;;;;109.67;100.67;;;;;;;;5072365;28;45477;-64
2022/01/15 05:01:15;;;;;;;;;99.67;90.67;;;;;;;;5075362;28;46230;-64
2022/01/15 05:03:41;;;;;;;;;112.67;101.67;;;;;;;;5072910;28;45298;-64
2022/01/15 05:06:06;;;;;;;;;103.00;96.67;;;;;;;;5072807;27;45982;-63
2022/01/15 05:08:32;;;;;;;;;106.67;94.33;;;;;;;;5072138;28;46154;-63
2022/01/15 05:10:59;;;;;;;;;101.67;90.67;;;;;;;;5070787;28;46534;-64
2022/01/15 05:13:28;;;;;;;;;100.00;88.67;;;;;;;;5073448;28;45451;-65
2022/01/15 05:15:54;;;;;;;;;110.67;100.33;;;;;;;;5069813;27;46146;-64
2022/01/15 05:18:19;;;;;;;;;107.67;100.67;;;;;;;;5067191;28;47668;-64
2022/01/15 05:20:45;;;;;;;;;100.67;88.33;;;;;;;;5071419;28;45530;-63
2022/01/15 05:23:10;;;;;;;;;110.67;100.67;;;;;;;;5067889;28;45471;-65
2022/01/15 05:25:36;;;;;;;;;109.00;98.33;;;;;;;;5074655;27;45278;-63
2022/01/15 05:28:01;;;;;;;;;120.67;102.00;;;;;;;;5071912;27;45520;-64
2022/01/15 05:30:28;;;;;;;;;102.33;94.33;;;;;;;;5070511;27;45482;-64
2022/01/15 05:32:53;;;;;;;;;52.00;33.00;;;;;;;;5066210;28;45486;-64
2022/01/15 05:35:25;;;;;;;;;110.50;98.75;;;;;;;;5065439;27;45558;-64
2022/01/15 05:37:51;;;;;;;;;101.00;89.00;;;;;;;;5069376;28;45962;-64
2022/01/15 05:40:16;;;;;;;;;100.67;86.33;;;;;;;;5064781;27;46027;-64
2022/01/15 05:42:41;;;;;;;;;105.00;99.00;;;;;;;;5063332;28;45470;-64
2022/01/15 05:45:07;;;;;;;;;112.33;96.00;;;;;;;;5062144;28;45528;-65
2022/01/15 05:47:32;;;;;;;;;101.33;93.33;;;;;;;;5064458;28;45551;-65
2022/01/15 05:49:57;;;;;;;;;100.00;91.00;;;;;;;;5065614;27;46561;-65
2022/01/15 05:52:22;;;;;;;;;101.25;90.25;;;;;;;;5073005;28;45367;-65
2022/01/15 05:54:47;;;;;;;;;105.33;97.67;;;;;;;;5069999;27;45431;-65
2022/01/15 05:57:13;;;;;;;;;104.67;94.00;;;;;;;;5072804;27;45529;-65
2022/01/15 05:59:38;;;;;;;;;99.00;90.00;;;;;;;;5071963;27;45554;-66
2022/01/15 06:02:03;;;;;;;;;103.33;93.00;;;;;;;;5064302;27;45531;-64
2022/01/15 06:04:28;;;;;;;;;102.75;91.25;;;;;;;;5059645;28;45611;-65
2022/01/15 06:06:54;;;;;;;;;100.33;88.33;;;;;;;;5067632;28;45456;-64
2022/01/15 06:09:19;;;;;;;;;93.00;80.25;;;;;;;;5066827;28;46489;-64
2022/01/15 06:11:45;;;;;;;;;95.75;80.75;;;;;;;;5068677;28;45998;-64
2022/01/15 06:14:10;;;;;;;;;102.00;92.00;;;;;;;;5072177;28;45424;-64
2022/01/15 06:16:36;;;;;;;;;97.00;79.67;;;;;;;;5067171;28;45371;-64
2022/01/15 06:19:01;;;;;;;;;62.75;46.75;;;;;;;;5064513;27;46552;-63
2022/01/15 06:21:27;;;;;;;;;101.00;84.25;;;;;;;;5064911;28;45552;-63
2022/01/15 06:23:52;;;;;;;;;101.00;93.00;;;;;;;;5061490;28;45483;-63
2022/01/15 06:26:17;;;;;;;;;89.75;72.50;;;;;;;;5067328;28;45420;-62
2022/01/15 06:28:42;;;;;;;;;101.67;94.33;;;;;;;;5072703;28;46478;-63
2022/01/15 06:31:08;;;;;;;;;100.75;91.50;;;;;;;;5066158;28;45440;-63
2022/01/15 06:33:33;;;;;;;;;96.50;80.50;;;;;;;;5062150;28;45503;-63
2022/01/15 06:35:58;;;;;;;;;100.50;91.25;;;;;;;;5066827;28;45336;-64
2022/01/15 06:38:24;;;;;;;;;108.33;92.00;;;;;;;;5061686;28;45930;-63
2022/01/15 06:40:49;;;;;;;;;104.50;91.75;;;;;;;;5066147;28;45290;-63
2022/01/15 06:43:14;;;;;;;;;102.50;91.00;;;;;;;;5058509;28;45360;-63
2022/01/15 06:45:39;;;;;;;;;97.50;85.75;;;;;;;;5065053;28;45445;-64
2022/01/15 06:48:05;;;;;;;;;99.75;85.75;;;;;;;;5047942;28;47700;-64
2022/01/15 06:50:30;;;;;;;;;97.25;88.50;;;;;;;;5063618;28;45460;-63
2022/01/15 06:52:56;;;;;;;;;101.00;90.33;;;;;;;;5069770;27;45510;-63
2022/01/15 06:55:21;;;;;;;;;100.50;93.50;;;;;;;;5070692;28;45286;-64
2022/01/15 06:57:46;;;;;;;;;99.25;84.50;;;;;;;;5070060;28;46292;-64
2022/01/15 07:00:12;;;;;;;;;102.75;87.00;;;;;;;;5069872;27;45471;-64
2022/01/15 07:02:38;;;;;;;;;108.67;96.67;;;;;;;;5068019;28;45442;-64
2022/01/15 07:05:03;;;;;;;;;104.67;96.33;;;;;;;;5071438;27;45507;-64
2022/01/15 07:07:29;;;;;;;;;101.00;91.00;;;;;;;;5071660;28;46236;-64
2022/01/15 07:09:54;;;;;;;;;112.67;99.67;;;;;;;;5068204;28;45491;-64
2022/01/15 07:12:19;;;;;;;;;103.00;88.00;;;;;;;;5071096;27;45415;-64
2022/01/15 07:14:44;;;;;;;;;97.67;83.67;;;;;;;;5071315;27;45408;-64
2022/01/15 07:17:10;;;;;;;;;100.25;90.00;;;;;;;;5069226;27;46767;-64
2022/01/15 07:19:35;;;;;;;;;102.67;96.33;;;;;;;;5057046;28;46618;-64
2022/01/15 07:22:01;;;;;;;;;100.00;86.75;;;;;;;;5070134;27;45511;-64
2022/01/15 07:24:26;;;;;;;;;100.00;83.75;;;;;;;;5070797;28;45348;-65
2022/01/15 07:26:51;;;;;;;;;104.00;93.00;;;;;;;;5071113;28;45654;-64
2022/01/15 07:29:16;;;;;;;;;91.50;76.75;;;;;;;;5069478;28;45824;-64
2022/01/15 07:31:42;;;;;;;;;104.00;91.33;;;;;;;;5070497;28;45516;-64
2022/01/15 07:34:09;;;;;;;;;103.00;93.00;;;;;;;;5070911;28;45484;-64
2022/01/15 07:36:35;;;;;;;;;101.75;91.00;;;;;;;;5067937;27;47639;-64
2022/01/15 07:39:00;;;;;;;;;105.33;94.67;;;;;;;;5069340;28;45433;-65
2022/01/15 07:41:25;;;;;;;;;103.00;91.50;;;;;;;;5070874;27;46311;-64
2022/01/15 07:43:50;;;;;;;;;96.67;76.67;;;;;;;;5070967;28;45314;-64
2022/01/15 07:46:16;;;;;;;;;95.75;79.75;;;;;;;;5071218;28;49027;-64
2022/01/15 07:48:41;;;;;;;;;104.67;93.33;;;;;;;;5069655;27;45364;-65
2022/01/15 07:51:07;;;;;;;;;97.33;85.67;;;;;;;;5066102;27;49633;-64
2022/01/15 07:53:32;;;;;;;;;106.33;98.67;;;;;;;;5064102;27;45581;-64
2022/01/15 07:55:57;;;;;;;;;104.00;94.33;;;;;;;;5062022;28;45536;-63
2022/01/15 07:58:22;;;;;;;;;101.67;88.33;;;;;;;;5070421;28;46163;-64
2022/01/15 08:00:48;;;;;;;;;110.67;95.00;;;;;;;;5070313;27;45326;-64
2022/01/15 08:03:13;;;;;;;;;103.50;90.75;;;;;;;;5073306;27;45420;-64
2022/01/15 08:05:38;;;;;;;;;104.25;91.25;;;;;;;;5070929;27;45813;-64
2022/01/15 08:08:04;;;;;;;;;102.33;93.67;;;;;;;;5064290;27;45399;-64
2022/01/15 08:10:29;;;;;;;;;100.75;88.75;;;;;;;;5060535;28;45473;-64
2022/01/15 08:12:54;;;;;;;;;107.00;95.67;;;;;;;;5071787;28;45348;-64
2022/01/15 08:15:20;;;;;;;;;102.00;92.00;;;;;;;;5071868;28;46083;-64
2022/01/15 08:17:46;;;;;;;;;102.67;93.33;;;;;;;;5073278;27;45410;-63
2022/01/15 08:20:11;;;;;;;;;102.75;93.25;;;;;;;;5055610;28;45361;-63
2022/01/15 08:22:36;;;;;;;;;101.00;90.00;;;;;;;;5072965;28;45457;-64
2022/01/15 08:25:02;;;;;;;;;103.67;95.33;;;;;;;;5072638;28;48369;-64
2022/01/15 08:27:27;;;;;;;;;101.00;89.67;;;;;;;;5071894;28;45503;-64
2022/01/15 08:29:52;;;;;;;;;104.33;96.00;;;;;;;;5072091;28;45561;-64
2022/01/15 08:32:18;;;;;;;;;102.00;92.75;;;;;;;;5072284;28;45386;-64
2022/01/15 08:34:44;;;;;;;;;101.33;95.00;;;;;;;;5073901;28;45568;-64
2022/01/15 08:37:09;;;;;;;;;102.67;91.00;;;;;;;;5073359;28;45432;-64
2022/01/15 08:39:35;;;;;;;;;107.00;94.75;;;;;;;;5072840;28;45546;-64
2022/01/15 08:42:01;;;;;;;;;100.00;90.33;;;;;;;;5073606;27;45424;-64
2022/01/15 08:44:26;;;;;;;;;111.33;102.00;;;;;;;;5071536;27;46446;-63
2022/01/15 08:46:52;;;;;;;;;108.67;100.67;;;;;;;;5062906;27;45558;-63
2022/01/15 08:49:20;;;;;;;;;118.00;107.67;;;;;;;;5074066;28;45519;-64
2022/01/15 08:51:45;;;;;;;;;111.67;98.33;;;;;;;;5070762;27;45534;-71
2022/01/15 08:54:10;;;;;;;;;107.00;96.00;;;;;;;;5070815;28;45706;-65
2022/01/15 08:56:36;;;;;;;;;111.33;103.33;;;;;;;;5072183;28;45443;-65
2022/01/15 08:59:02;;;;;;;;;99.33;88.67;;;;;;;;5073735;27;45313;-65
2022/01/15 09:01:27;;;;;;;;;95.33;75.00;;;;;;;;5075332;27;45385;-63
2022/01/15 09:03:55;;;;;;;;;103.67;93.67;;;;;;;;5073083;28;45817;-64
2022/01/15 09:06:20;;;;;;;;;111.33;95.00;;;;;;;;5070576;28;45908;-63
2022/01/15 09:08:46;;;;;;;;;101.67;93.67;;;;;;;;5068119;28;45503;-63
2022/01/15 09:11:11;;;;;;;;;95.67;89.00;;;;;;;;5060162;28;45324;-63
2022/01/15 09:13:36;;;;;;;;;105.67;95.67;;;;;;;;5074559;28;46358;-63
2022/01/15 09:16:02;;;;;;;;;107.00;97.67;;;;;;;;5071506;28;46227;-63
2022/01/15 09:18:27;;;;;;;;;92.00;83.67;;;;;;;;5052834;28;45603;-64
2022/01/15 09:20:52;;;;;;;;;104.25;92.75;;;;;;;;5062920;28;45496;-64
2022/01/15 09:23:18;;;;;;;;;106.00;98.00;;;;;;;;5069046;27;45770;-64
2022/01/15 09:25:43;;;;;;;;;99.33;90.00;;;;;;;;5060906;28;45857;-64
2022/01/15 09:30:52;;;;;;;;;111.00;99.67;;;;;;;;5072682;28;45458;-64
2022/01/15 09:33:18;;;;;;;;;93.00;86.25;;;;;;;;5072749;27;46483;-64
2022/01/15 09:35:43;;;;;;;;;93.25;85.25;;;;;;;;5073081;27;45476;-63
2022/01/15 09:38:08;;;;;;;;;95.75;86.50;;;;;;;;5070967;28;45543;-65
2022/01/15 09:40:34;;;;;;;;;108.33;100.67;;;;;;;;5074416;28;45396;-65
2022/01/15 09:43:00;;;;;;;;;45.00;37.33;;;;;;;;5069224;28;47206;-66
2022/01/15 09:45:25;;;;;;;;;93.67;84.33;;;;;;;;5071377;27;45684;-65
2022/01/15 09:48:09;;;;;;;;;95.33;93.00;;;;;;;;5071197;27;45427;-66
2022/01/15 09:50:36;;;;;;;;;100.67;92.00;;;;;;;;5071771;27;45603;-64
2022/01/15 09:53:02;;;;;;;;;102.67;95.67;;;;;;;;5058944;28;47767;-63
2022/01/15 09:55:27;;;;;;;;;97.00;91.33;;;;;;;;5073268;28;45476;-68
2022/01/15 09:57:53;;;;;;;;;97.33;86.67;;;;;;;;5070009;27;45364;-64
2022/01/15 10:00:19;;;;;;;;;94.67;90.00;;;;;;;;5072065;27;45481;-65
2022/01/15 10:02:46;;;;;;;;;99.00;96.00;;;;;;;;5070643;28;47396;-64
2022/01/15 10:05:12;;;;;;;;;101.33;97.00;;;;;;;;5070081;28;45420;-68
2022/01/15 10:07:38;;;;;;;;;104.33;102.00;;;;;;;;5073674;28;45395;-66
2022/01/15 10:10:14;;;;;;;;;106.67;100.67;;;;;;;;5072890;28;45353;-65
2022/01/15 10:12:42;;;;;;;;;104.67;100.33;;;;;;;;5072220;27;45709;-66
2022/01/15 10:15:07;;;;;;;;;115.33;102.33;;;;;;;;5070853;28;45499;-65
2022/01/15 10:17:34;;;;;;;;;112.33;107.33;;;;;;;;5070353;27;45526;-63
2022/01/15 10:20:00;;;;;;;;;102.67;98.00;;;;;;;;5065529;27;47880;-62
2022/01/15 10:22:26;;;;;;;;;90.33;79.67;;;;;;;;5060320;28;47215;-65
2022/01/15 10:24:55;;;;;;;;;104.33;101.00;;;;;;;;5069872;27;45954;-64
2022/01/15 10:27:22;;;;;;;;;109.33;107.00;;;;;;;;5070063;28;45433;-64
2022/01/15 10:29:52;;;;;;;;;122.00;112.00;;;;;;;;5071578;27;45500;-63
2022/01/15 10:32:17;;;;;;;;;116.33;114.00;;;;;;;;5071914;27;47374;-62
2022/01/15 10:34:44;;;;;;;;;114.33;104.33;;;;;;;;5073015;28;45454;-63
2022/01/15 10:37:14;;;;;;;;;119.67;113.00;;;;;;;;5072145;27;45412;-63
2022/01/15 10:39:40;;;;;;;;;126.00;114.67;;;;;;;;5070885;27;45450;-63
2022/01/15 10:42:13;;;;;;;;;130.67;124.67;;;;;;;;5070113;28;47803;-63
2022/01/15 10:44:38;;;;;;;;;113.33;106.67;;;;;;;;5069536;28;45393;-64
2022/01/15 10:47:05;;;;;;;;;111.67;109.67;;;;;;;;5071892;27;45340;-65
2022/01/15 10:49:30;;;;;;;;;114.00;112.33;;;;;;;;5072674;28;45355;-62
2022/01/15 10:52:06;;;;;;;;;122.33;117.33;;;;;;;;5063774;27;45623;-62
2022/01/15 10:54:34;;;;;;;;;119.67;114.00;;;;;;;;5076370;27;45444;-64
2022/01/15 10:57:09;;;;;;;;;127.00;117.67;;;;;;;;5079799;27;45420;-63
2022/01/15 10:59:35;;;;;;;;;120.67;115.67;;;;;;;;5075410;27;45829;-62
2022/01/15 11:02:16;;;;;;;;;114.67;106.00;;;;;;;;5086342;27;45832;-63
2022/01/15 11:04:41;;;;;;;;;134.00;125.33;;;;;;;;5073663;27;45437;-63
2022/01/15 11:07:10;;;;;;;;;129.33;117.67;;;;;;;;5080708;27;45599;-63
2022/01/15 11:09:35;;;;;;;;;120.67;111.33;;;;;;;;5074423;27;45593;-63
2022/01/15 11:12:01;;;;;;;;;126.33;119.33;;;;;;;;5066913;27;47365;-63
2022/01/15 11:14:26;;;;;;;;;122.67;115.00;;;;;;;;5068068;27;46041;-63
2022/01/15 11:16:54;;;;;;;;;122.00;113.67;;;;;;;;5062238;27;45642;-63
2022/01/15 11:19:20;;;;;;;;;110.33;103.00;;;;;;;;5080081;27;45560;-64
2022/01/15 11:21:45;;;;;;;;;114.33;107.67;;;;;;;;5069248;27;47186;-64
2022/01/15 11:24:10;;;;;;;;;101.33;93.33;;;;;;;;5072252;27;45621;-63
2022/01/15 11:26:37;;;;;;;;;110.33;105.00;;;;;;;;5069768;27;45593;-63
2022/01/15 11:29:02;;;;;;;;;109.00;100.00;;;;;;;;5056367;27;45651;-63
2022/01/15 11:31:29;;;;;;;;;119.33;108.33;;;;;;;;5071799;27;47637;-64
2022/01/15 11:33:56;;;;;;;;;107.67;97.67;;;;;;;;5076499;27;45462;-63
2022/01/15 11:36:27;;;;;;;;;104.67;94.00;;;;;;;;5082362;27;45300;-63
2022/01/15 11:38:52;;;;;;;;;96.00;90.67;;;;;;;;5066126;27;45522;-63
2022/01/15 11:41:21;;;;;;;;;105.67;97.33;;;;;;;;5077116;27;46347;-62
2022/01/15 11:43:47;;;;;;;;;107.00;97.67;;;;;;;;5087160;27;45549;-62
2022/01/15 11:46:22;;;;;;;;;98.00;94.00;;;;;;;;5075866;27;45540;-64
2022/01/15 11:48:48;;;;;;;;;87.50;83.00;;;;;;;;5069985;27;45519;-63
2022/01/15 11:51:13;;;;;;;;;91.50;87.50;;;;;;;;5067850;28;45710;-63
2022/01/15 11:53:44;;;;;;;;;87.50;81.25;;;;;;;;5071380;28;46300;-63
2022/01/15 11:56:28;;;;;;;;;84.50;77.00;;;;;;;;5074169;27;46093;-63
2022/01/15 11:59:17;;;;;;;;;88.75;84.00;;;;;;;;5072001;28;45664;-63
2022/01/15 12:01:43;;;;;;;;;81.25;71.50;;;;;;;;5072358;28;46535;-64
2022/01/15 12:04:27;;;;;;;;;87.75;83.25;;;;;;;;5067803;28;46147;-63
2022/01/15 12:07:05;;;;;;;;;94.50;85.00;;;;;;;;5070143;28;45461;-62
2022/01/15 12:09:30;;;;;;;;;86.50;82.25;;;;;;;;5063754;28;45443;-63
2022/01/15 12:11:55;;;;;;;;;85.00;80.50;;;;;;;;5071843;27;45475;-63
2022/01/15 12:14:40;;;;;;;;;94.75;92.00;;;;;;;;5074293;28;45468;-63
2022/01/15 12:17:24;;;;;;;;;99.25;91.50;;;;;;;;5058459;28;45333;-63
2022/01/15 12:19:50;;;;;;;;;93.00;90.75;;;;;;;;5073983;28;45402;-63
2022/01/15 12:22:34;;;;;;;;;97.50;93.25;;;;;;;;5075980;27;45347;-63
2022/01/15 12:25:00;;;;;;;;;92.33;90.00;;;;;;;;5074235;28;45368;-68
2022/01/15 12:27:26;;;;;;;;;104.33;99.67;;;;;;;;5073846;27;45518;-70
2022/01/15 12:29:57;;;;;;;;;99.67;92.33;;;;;;;;5074154;27;46024;-69
2022/01/15 12:32:29;;;;;;;;;115.33;107.00;;;;;;;;5073835;27;45783;-71
2022/01/15 12:34:56;;;;;;;;;106.00;99.00;;;;;;;;5074174;28;45399;-64
2022/01/15 12:37:21;;;;;;;;;108.00;106.00;;;;;;;;5074592;28;45506;-67
2022/01/15 12:39:47;;;;;;;;;120.67;112.00;;;;;;;;5071611;27;45588;-67
2022/01/15 12:42:13;;;;;;;;;117.33;111.00;;;;;;;;5073470;27;45532;-66
2022/01/15 12:44:49;;;;;;;;;121.67;111.33;;;;;;;;5071282;28;46228;-66
2022/01/15 12:47:15;;;;;;;;;121.00;112.00;;;;;;;;5073965;27;45416;-69
2022/01/15 12:49:42;;;;;;;;;122.33;115.33;;;;;;;;5075038;28;45357;-65
2022/01/15 12:52:20;;;;;;;;;116.00;109.67;;;;;;;;5053020;28;47600;-65
2022/01/15 12:54:49;;;;;;;;;110.33;108.00;;;;;;;;5068854;28;45558;-67
2022/01/15 12:57:35;;;;;;;;;111.33;106.33;;;;;;;;5073299;28;47761;-65
2022/01/15 13:00:20;;;;;;;;;113.00;109.67;;;;;;;;5073350;27;45511;-65
2022/01/15 13:02:46;;;;;;;;;109.33;106.33;;;;;;;;5068948;28;45662;-67
2022/01/15 13:05:12;;;;;;;;;95.33;91.00;;;;;;;;5072859;27;45358;-66
2022/01/15 13:07:51;;;;;;;;;135.67;125.67;;;;;;;;5073616;28;45450;-64
2022/01/15 13:10:26;;;;;;;;;107.33;103.67;;;;;;;;5075541;27;45459;-67
2022/01/15 13:12:53;;;;;;;;;120.67;115.33;;;;;;;;5073176;27;46807;-65
2022/01/15 13:15:19;;;;;;;;;99.33;95.67;;;;;;;;5072957;27;45513;-66
2022/01/15 13:17:44;;;;;;;;;115.00;110.33;;;;;;;;5073417;27;45444;-66
2022/01/15 13:20:23;;;;;;;;;93.33;90.67;;;;;;;;5071740;28;45459;-65
2022/01/15 13:22:52;;;;;;;;;94.67;89.67;;;;;;;;5071882;28;48805;-65
2022/01/15 13:25:20;;;;;;;;;83.00;80.75;;;;;;;;5074879;27;45391;-65
2022/01/15 13:27:45;;;;;;;;;80.75;79.00;;;;;;;;5073240;27;45415;-65
2022/01/15 13:30:10;;;;;;;;;78.50;70.50;;;;;;;;5072684;27;45481;-65
2022/01/15 13:32:35;;;;;;;;;79.50;71.75;;;;;;;;5072696;27;45423;-65
2022/01/15 13:35:13;;;;;;;;;81.50;74.25;;;;;;;;5072864;28;45491;-66
2022/01/15 13:37:49;;;;;;;;;87.25;85.00;;;;;;;;5069981;28;45396;-66
2022/01/15 13:40:25;;;;;;;;;85.75;83.25;;;;;;;;5075046;27;45422;-66
2022/01/15 13:42:50;;;;;;;;;107.00;99.67;;;;;;;;5072735;27;45348;-65
2022/01/15 13:45:15;;;;;;;;;91.00;85.75;;;;;;;;5072577;27;45394;-66
2022/01/15 13:47:41;;;;;;;;;80.25;74.75;;;;;;;;5072889;27;45439;-67
2022/01/15 13:55:44;;;;;;;;;85.50;79.50;;;;;;;;5053116;27;45318;-66
2022/01/15 13:58:11;;;;;;;;;88.75;84.25;;;;;;;;5074029;28;45400;-66
2022/01/15 14:00:36;;;;;;;;;88.75;85.00;;;;;;;;5071855;27;46478;-67
2022/01/15 14:03:05;;;;;;;;;89.25;86.50;;;;;;;;5071363;27;45788;-67
2022/01/15 14:05:30;;;;;;;;;86.50;82.00;;;;;;;;5071511;27;45601;-67
2022/01/15 14:07:55;;;;;;;;;90.00;85.25;;;;;;;;5070252;27;45464;-67
2022/01/15 14:10:28;;;;;;;;;88.25;79.00;;;;;;;;5072446;28;45439;-67
2022/01/15 14:13:00;;;;;;;;;85.75;82.25;;;;;;;;5072084;27;45828;-67
2022/01/15 14:15:32;;;;;;;;;96.50;86.25;;;;;;;;5072139;28;45557;-67
2022/01/15 14:18:00;;;;;;;;;85.50;84.25;;;;;;;;5072339;27;45432;-65
2022/01/15 14:21:15;;;;;;;;;84.00;79.00;;;;;;;;5072091;27;45393;-66
2022/01/15 14:23:45;;;;;;;;;89.00;83.50;;;;;;;;5056365;28;45960;-66
2022/01/15 14:26:15;;;;;;;;;90.00;85.25;;;;;;;;5054163;28;45569;-67
2022/01/15 14:28:40;;;;;;;;;78.00;65.25;;;;;;;;5062592;28;45444;-65
2022/01/15 14:31:06;;;;;;;;;81.00;73.00;;;;;;;;5062215;27;45483;-67
2022/01/15 14:33:31;;;;;;;;;78.00;66.50;;;;;;;;5054002;28;47402;-67
2022/01/15 14:35:56;;;;;;;;;80.25;69.50;;;;;;;;5070261;27;45461;-67
2022/01/15 14:38:22;;;;;;;;;79.00;64.25;;;;;;;;5068312;27;45473;-67